createdAt,value
2022-10-09T00:03:24.720Z,14.40
2022-10-09T00:08:26.779Z,13.23
2022-10-09T00:13:28.517Z,13.05
2022-10-09T00:18:30.260Z,13.95
2022-10-09T00:23:32.564Z,13.70
2022-10-09T00:28:38.325Z,14.43
2022-10-09T00:33:40.722Z,13.88
2022-10-09T00:38:42.923Z,13.70
2022-10-09T00:43:49.246Z,13.73
2022-10-09T00:49:00.516Z,13.02
2022-10-09T00:54:05.369Z,12.07
2022-10-09T00:59:07.711Z,12.43
2022-10-09T01:04:09.766Z,13.27
2022-10-09T01:09:20.004Z,13.70
2022-10-09T01:14:29.058Z,13.20
2022-10-09T01:19:41.155Z,12.88
2022-10-09T01:25:01.734Z,13.43
2022-10-09T01:30:12.729Z,14.13
2022-10-09T01:35:17.024Z,14.05
2022-10-09T01:40:20.273Z,13.65
2022-10-09T01:45:22.142Z,12.82
2022-10-09T01:50:27.529Z,12.63
2022-10-09T01:55:29.419Z,12.60
2022-10-09T02:00:36.552Z,13.20
2022-10-09T02:05:41.334Z,12.63
2022-10-09T02:10:47.032Z,11.35
2022-10-09T02:15:53.342Z,11.20
2022-10-09T02:21:01.060Z,12.05
2022-10-09T02:26:03.123Z,13.70
2022-10-09T02:31:26.885Z,11.63
2022-10-09T02:36:32.387Z,12.75
2022-10-09T02:41:35.528Z,11.23
2022-10-09T02:46:38.598Z,12.30
2022-10-09T02:51:40.507Z,11.63
2022-10-09T02:56:42.598Z,12.27
2022-10-09T03:01:44.893Z,11.52
2022-10-09T03:06:46.760Z,9.80
2022-10-09T03:11:48.558Z,10.13
2022-10-09T03:16:50.340Z,10.48
2022-10-09T03:21:52.121Z,11.10
2022-10-09T03:26:53.961Z,10.88
2022-10-09T03:31:55.748Z,10.85
2022-10-09T03:36:57.454Z,10.50
2022-10-09T03:41:59.208Z,10.68
2022-10-09T03:47:01.051Z,10.85
2022-10-09T03:52:02.893Z,11.50
2022-10-09T03:57:04.681Z,10.20
2022-10-09T04:02:06.521Z,11.68
2022-10-09T04:07:08.276Z,10.05
2022-10-09T04:12:10.058Z,9.75
2022-10-09T04:17:11.815Z,9.40
2022-10-09T04:22:13.570Z,10.03
2022-10-09T04:27:15.427Z,10.25
2022-10-09T04:32:17.238Z,10.80
2022-10-09T04:37:18.951Z,10.65
2022-10-09T04:42:20.896Z,10.57
2022-10-09T04:47:22.751Z,10.40
2022-10-09T04:52:24.683Z,9.80
2022-10-09T04:57:26.405Z,9.82
2022-10-09T05:02:28.210Z,9.98
2022-10-09T05:07:30.058Z,8.73
2022-10-09T05:12:31.811Z,9.57
2022-10-09T05:17:33.679Z,10.38
2022-10-09T05:22:35.515Z,11.35
2022-10-09T05:27:37.548Z,10.02
2022-10-09T05:32:39.318Z,10.73
2022-10-09T05:37:44.612Z,10.57
2022-10-09T05:42:50.200Z,11.02
2022-10-09T05:47:52.417Z,11.10
2022-10-09T05:52:54.217Z,11.30
2022-10-09T05:57:56.110Z,13.68
2022-10-09T06:02:57.983Z,12.68
2022-10-09T06:07:59.736Z,13.90
2022-10-09T06:13:01.523Z,11.80
2022-10-09T06:18:03.324Z,11.50
2022-10-09T06:23:05.050Z,11.13
2022-10-09T06:28:06.842Z,12.38
2022-10-09T06:33:08.639Z,11.27
2022-10-09T06:38:10.711Z,12.65
2022-10-09T06:43:12.499Z,12.50
2022-10-09T06:48:14.308Z,14.23
2022-10-09T06:53:16.030Z,13.82
2022-10-09T06:58:17.770Z,12.35
2022-10-09T07:03:19.557Z,13.65
2022-10-09T07:08:21.299Z,13.13
2022-10-09T07:13:23.200Z,14.02
2022-10-09T07:18:24.902Z,13.30
2022-10-09T07:23:28.792Z,14.48
2022-10-09T07:28:30.768Z,13.82
2022-10-09T07:33:33.086Z,13.05
2022-10-09T07:38:35.165Z,12.25
2022-10-09T07:43:38.828Z,13.68
2022-10-09T07:48:41.032Z,12.85
2022-10-09T07:53:43.337Z,12.98
2022-10-09T07:58:56.668Z,14.25
2022-10-09T08:04:01.091Z,13.80
2022-10-09T08:09:05.372Z,12.63
2022-10-09T08:14:07.695Z,13.05
2022-10-09T08:19:09.710Z,12.32
2022-10-09T08:24:12.480Z,8.82
2022-10-09T08:29:16.065Z,9.35
2022-10-09T08:34:18.242Z,9.15
2022-10-09T08:39:20.018Z,9.10
2022-10-09T08:44:43.019Z,9.65
2022-10-09T08:49:59.370Z,8.40
2022-10-09T08:55:08.498Z,8.10
2022-10-09T09:00:21.881Z,7.80
2022-10-09T09:05:45.432Z,7.28
2022-10-09T09:10:55.301Z,7.60
2022-10-09T09:16:15.725Z,6.60
2022-10-09T09:21:34.196Z,6.45
2022-10-09T09:26:40.876Z,6.32
2022-10-09T09:31:43.672Z,7.50
2022-10-09T09:36:57.260Z,7.82
2022-10-09T09:42:20.162Z,8.23
2022-10-09T09:47:30.129Z,8.75
2022-10-09T09:52:41.131Z,9.40
2022-10-09T09:57:46.221Z,9.63
2022-10-09T10:03:02.286Z,10.70
2022-10-09T10:08:22.992Z,10.23
2022-10-09T10:13:38.272Z,10.35
2022-10-09T10:18:42.211Z,10.15
2022-10-09T10:23:50.070Z,10.88
2022-10-09T10:29:03.020Z,10.90
2022-10-09T10:34:07.708Z,11.30
2022-10-09T10:39:20.956Z,10.80
2022-10-09T10:44:47.491Z,10.60
2022-10-09T10:49:49.727Z,11.10
2022-10-09T10:55:03.533Z,11.68
2022-10-09T11:00:09.583Z,12.30
2022-10-09T11:05:17.211Z,11.73
2022-10-09T11:10:36.718Z,11.73
2022-10-09T11:16:16.041Z,12.88
2022-10-09T11:21:33.653Z,12.57
2022-10-09T11:27:03.394Z,12.43
2022-10-09T11:32:20.620Z,11.80
2022-10-09T11:37:27.281Z,11.85
2022-10-09T11:42:29.405Z,12.90
2022-10-09T11:47:37.576Z,13.55
2022-10-09T11:53:11.478Z,13.43
2022-10-09T11:58:16.403Z,13.55
2022-10-09T12:03:33.278Z,13.48
2022-10-09T12:08:36.557Z,13.75
2022-10-09T12:13:41.871Z,13.40
2022-10-09T12:18:47.816Z,13.27
2022-10-09T12:23:51.375Z,13.52
2022-10-09T12:28:56.672Z,13.55
2022-10-09T12:34:06.398Z,13.38
2022-10-09T12:39:34.556Z,13.70
2022-10-09T12:44:42.454Z,13.85
2022-10-09T12:49:57.863Z,13.30
2022-10-09T12:55:02.348Z,12.70
2022-10-09T13:00:05.467Z,13.18
2022-10-09T13:05:07.502Z,13.23
2022-10-09T13:10:22.324Z,13.35
2022-10-09T13:15:32.065Z,13.20
2022-10-09T13:20:33.895Z,13.15
2022-10-09T13:25:38.836Z,12.80
2022-10-09T13:30:40.645Z,12.98
2022-10-09T13:35:43.212Z,14.43
2022-10-09T13:40:45.060Z,14.43
2022-10-09T13:45:47.021Z,14.73
2022-10-09T13:50:48.942Z,14.90
2022-10-09T13:55:55.922Z,14.13
2022-10-09T14:00:59.056Z,14.20
2022-10-09T14:06:03.850Z,14.98
2022-10-09T14:11:06.121Z,14.38
2022-10-09T14:16:08.313Z,14.43
2022-10-09T14:21:15.798Z,13.70
2022-10-09T14:26:17.747Z,13.18
2022-10-09T14:31:19.941Z,13.75
2022-10-09T14:36:21.707Z,13.77
2022-10-09T14:41:23.488Z,13.52
2022-10-09T14:46:27.212Z,13.52
2022-10-09T14:51:31.559Z,13.80
2022-10-09T14:56:36.286Z,12.77
2022-10-09T15:01:38.264Z,12.90
2022-10-09T15:06:40.007Z,12.60
2022-10-09T15:11:41.801Z,12.10
2022-10-09T15:16:43.579Z,13.18
2022-10-09T15:21:45.322Z,12.77
2022-10-09T15:26:47.067Z,14.05
2022-10-09T15:31:51.472Z,12.85
2022-10-09T15:36:53.282Z,13.43
2022-10-09T15:41:55.040Z,12.73
2022-10-09T15:46:56.942Z,14.13
2022-10-09T15:51:58.775Z,14.10
2022-10-09T15:57:00.625Z,13.15
2022-10-09T16:02:02.415Z,13.50
2022-10-09T16:07:04.577Z,13.25
2022-10-09T16:12:06.317Z,12.50
2022-10-09T16:17:11.287Z,13.48
2022-10-09T16:22:13.327Z,13.43
2022-10-09T16:27:15.146Z,12.85
2022-10-09T16:32:16.961Z,12.38
2022-10-09T16:37:18.772Z,12.05
2022-10-09T16:42:20.863Z,10.85
2022-10-09T16:47:22.635Z,10.50
2022-10-09T16:52:24.407Z,11.02
2022-10-09T16:57:28.658Z,10.93
2022-10-09T17:02:30.508Z,10.57
2022-10-09T17:07:32.492Z,11.05
2022-10-09T17:12:34.401Z,10.13
2022-10-09T17:17:36.250Z,9.70
2022-10-09T17:22:39.707Z,9.80
2022-10-09T17:27:41.530Z,9.57
2022-10-09T17:32:43.464Z,10.00
2022-10-09T17:37:45.343Z,10.43
2022-10-09T17:42:47.325Z,10.23
2022-10-09T17:47:49.712Z,10.43
2022-10-09T17:52:51.819Z,10.00
2022-10-09T17:57:56.958Z,9.85
2022-10-09T18:02:58.759Z,9.60
2022-10-09T18:08:00.546Z,10.10
2022-10-09T18:13:02.518Z,10.07
2022-10-09T18:18:04.571Z,10.13
2022-10-09T18:23:07.970Z,9.73
2022-10-09T18:28:10.843Z,10.10
2022-10-09T18:33:13.000Z,10.27
2022-10-09T18:38:14.822Z,9.88
2022-10-09T18:43:16.597Z,10.05
2022-10-09T18:48:18.650Z,9.90
2022-10-09T18:53:20.468Z,11.77
2022-10-09T18:58:22.967Z,10.45
2022-10-09T19:03:24.821Z,10.40
2022-10-09T19:08:26.591Z,10.18
2022-10-09T19:13:28.510Z,9.52
2022-10-09T19:18:30.901Z,9.32
2022-10-09T19:23:35.543Z,13.43
2022-10-09T19:28:38.729Z,11.52
2022-10-09T19:33:42.062Z,11.90
2022-10-09T19:38:44.746Z,11.55
2022-10-09T19:43:46.515Z,10.90
2022-10-09T19:48:49.671Z,12.10
2022-10-09T19:53:55.021Z,13.45
2022-10-09T19:58:58.453Z,13.40
2022-10-09T20:04:03.005Z,12.05
2022-10-09T20:09:06.284Z,10.50
2022-10-09T20:14:09.787Z,11.60
2022-10-09T20:19:12.557Z,9.85
2022-10-09T20:24:14.376Z,9.18
2022-10-09T20:29:16.176Z,9.95
2022-10-09T20:34:18.065Z,10.40
2022-10-09T20:39:21.433Z,8.13
2022-10-09T20:44:23.365Z,9.05
2022-10-09T20:49:25.156Z,8.10
2022-10-09T20:54:26.936Z,7.53
2022-10-09T20:59:28.776Z,7.22
2022-10-09T21:04:31.614Z,7.13
2022-10-09T21:09:33.589Z,7.47
2022-10-09T21:14:36.644Z,7.13
2022-10-09T21:19:38.376Z,6.80
2022-10-09T21:24:40.146Z,6.68
2022-10-09T21:29:43.423Z,6.50
2022-10-09T21:34:45.842Z,6.03
2022-10-09T21:39:47.719Z,6.68
2022-10-09T21:44:49.520Z,6.15
2022-10-09T21:49:51.244Z,6.20
2022-10-09T21:54:52.997Z,5.82
2022-10-09T21:59:54.786Z,5.90
2022-10-09T22:04:57.377Z,5.25
2022-10-09T22:09:59.437Z,5.97
2022-10-09T22:15:01.273Z,6.40
2022-10-09T22:20:03.818Z,6.07
2022-10-09T22:25:06.223Z,5.65
2022-10-09T22:30:08.705Z,5.47
2022-10-09T22:35:10.519Z,5.53
2022-10-09T22:40:12.377Z,4.88
2022-10-09T22:45:14.153Z,5.28
2022-10-09T22:50:16.004Z,5.38
2022-10-09T22:55:17.872Z,5.35
2022-10-09T23:00:21.937Z,5.05
2022-10-09T23:05:24.385Z,5.35
2022-10-09T23:10:26.162Z,5.82
2022-10-09T23:15:27.972Z,5.60
2022-10-09T23:20:29.656Z,5.90
2022-10-09T23:25:31.458Z,5.88
2022-10-09T23:30:33.262Z,5.53
2022-10-09T23:35:40.218Z,5.97
2022-10-09T23:40:41.762Z,5.68
2022-10-09T23:45:43.304Z,5.57
2022-10-09T23:50:44.862Z,6.05
2022-10-09T23:55:46.747Z,6.30
